Aeroporto :
LOGIN :

Iscrizione | Disclaimer

   EN    FR    IT 

 










Sommario :    VFR   VFR Marginale   IFR   IFR Intensivo   IFR Molto Intensivo
Visibilità : 
Base nubi : 
>= 8 km
>= 3000ft
5 / 8 km
1000 / 3000 ft
1500m / 5 km
500 / 1000 ft
800 / 1500m
200 / 500 ft
< 800m
< 200 ft
Simboli :   Temporali  Nebbia  Neve Forte  Precipitazioni Forti  Vento > 20 kt
SIGMETs :   Varie  Temporali  Ghiacco  Turbolenza  Onda orograficha  Ceneri Vulcaniche






- Altitudine del aeroporto : 23 ft
- Codice IATA : XFW


EDHI - Hamburg Finkenwerder

ULTIMO METAR :
  • 011450Z 08006KT 050V120 9000 OVC007 04/03 Q1017

METARs OBSOLETI :
  • 011420Z 08007KT 050V110 9000 OVC007 04/03 Q1017
  • 011350Z 07005KT 040V100 8000 OVC007 04/03 Q1016
  • 011320Z 08006KT 040V110 8000 OVC007 04/03 Q1016
  • 011250Z 06007KT 6000 BKN006 04/03 Q1015
  • 011220Z 06003KT 030V100 5000 BR OVC006 04/03 Q1015

TAF TAF EDHI
Valido dal 01 a 15 ore il 01 a 21 ore UTC


011400Z 0115/0121 08005KT 7000 OVC006
TEMPO 0115/0121 4500 -DZ BR OVC004



MetMap, La meteo Aeronautica in un colpo d'occhio ! - Copyright ORBIFLY Dicembre 2007 - Disclaimer

ORBIFLY MET'MAP TEAM :

Programmazione e sviluppo : Alexandra Zaïnal
Concezione : Baudouin d'Aumeries
Aiuto per la programmazione : Marc-Olivier Méhu
Supporto tecnico e logistico : Manuel Goepfert
Aiuto per la traduzione : Arnaldo La Scala

Contatto : metmap@orbifly.com




FONTI E CREDITI :

   NOAA